createdAt,value
2019-04-01T00:02:00.906Z,1.50
2019-04-01T00:04:31.091Z,1.90
2019-04-01T00:07:01.448Z,1.92
2019-04-01T00:09:30.805Z,1.87
2019-04-01T00:12:00.889Z,1.70
2019-04-01T00:14:30.084Z,1.45
2019-04-01T00:16:59.276Z,2.20
2019-04-01T00:19:28.716Z,1.95
2019-04-01T00:21:58.193Z,1.50
2019-04-01T00:24:27.538Z,2.10
2019-04-01T00:26:57.757Z,2.02
2019-04-01T00:29:27.650Z,1.65
2019-04-01T00:31:57.610Z,2.08
2019-04-01T00:34:27.181Z,1.80
2019-04-01T00:36:57.072Z,1.95
2019-04-01T00:39:26.561Z,1.92
2019-04-01T00:42:08.317Z,4.60
2019-04-01T00:44:40.405Z,2.30
2019-04-01T00:47:08.905Z,1.50
2019-04-01T00:49:38.334Z,1.98
2019-04-01T00:52:10.742Z,2.10
2019-04-01T00:54:40.540Z,1.72
2019-04-01T00:57:10.031Z,1.90
2019-04-01T00:59:39.513Z,1.50
2019-04-01T01:02:08.865Z,1.82
2019-04-01T01:04:38.268Z,1.60
2019-04-01T01:07:07.474Z,2.35
2019-04-01T01:09:36.813Z,1.92
2019-04-01T01:12:06.280Z,2.08
2019-04-01T01:14:35.900Z,2.20
2019-04-01T01:17:05.377Z,2.40
2019-04-01T01:19:34.486Z,2.05
2019-04-01T01:22:03.723Z,1.75
2019-04-01T01:24:32.831Z,1.87
2019-04-01T01:27:02.321Z,1.12
2019-04-01T01:29:31.676Z,1.82
2019-04-01T01:32:01.105Z,1.80
2019-04-01T01:34:30.633Z,1.90
2019-04-01T01:37:00.285Z,1.52
2019-04-01T01:39:29.847Z,1.77
2019-04-01T01:41:59.447Z,1.80
2019-04-01T01:44:28.779Z,1.60
2019-04-01T01:46:58.424Z,1.90
2019-04-01T01:49:28.020Z,3.75
2019-04-01T01:51:57.544Z,2.22
2019-04-01T01:54:26.854Z,1.65
2019-04-01T01:56:56.221Z,2.65
2019-04-01T01:59:25.663Z,1.90
2019-04-01T02:01:55.041Z,2.90
2019-04-01T02:04:24.392Z,1.80
2019-04-01T02:06:53.508Z,2.00
2019-04-01T02:09:22.710Z,1.35
2019-04-01T02:11:52.082Z,1.60
2019-04-01T02:14:21.557Z,2.33
2019-04-01T02:16:50.797Z,2.00
2019-04-01T02:19:19.903Z,1.65
2019-04-01T02:21:49.121Z,2.62
2019-04-01T02:24:18.670Z,2.30
2019-04-01T02:26:47.974Z,1.80
2019-04-01T02:29:17.224Z,1.87
2019-04-01T02:31:46.465Z,2.35
2019-04-01T02:34:15.621Z,2.05
2019-04-01T02:36:45.006Z,3.30
2019-04-01T02:39:14.373Z,2.70
2019-04-01T02:41:43.576Z,2.12
2019-04-01T02:44:12.911Z,2.10
2019-04-01T02:46:43.183Z,2.30
2019-04-01T02:49:12.556Z,1.80
2019-04-01T02:51:42.094Z,1.55
2019-04-01T02:54:11.407Z,2.52
2019-04-01T02:56:40.558Z,2.35
2019-04-01T02:59:09.733Z,2.15
2019-04-01T03:01:39.053Z,2.00
2019-04-01T03:04:08.158Z,2.52
2019-04-01T03:06:37.115Z,2.27
2019-04-01T03:09:07.258Z,2.58
2019-04-01T03:11:36.084Z,2.30
2019-04-01T03:14:05.279Z,1.98
2019-04-01T03:16:34.367Z,1.80
2019-04-01T03:19:03.341Z,1.80
2019-04-01T03:21:32.376Z,2.37
2019-04-01T03:24:01.418Z,2.33
2019-04-01T03:26:30.794Z,2.40
2019-04-01T03:28:59.919Z,2.10
2019-04-01T03:31:29.428Z,3.17
2019-04-01T03:34:03.281Z,2.77
2019-04-01T03:36:33.147Z,2.47
2019-04-01T03:39:02.385Z,2.85
2019-04-01T03:41:31.531Z,2.20
2019-04-01T03:44:00.837Z,2.30
2019-04-01T03:46:30.011Z,2.30
2019-04-01T03:48:59.113Z,3.00
2019-04-01T03:51:28.327Z,3.30
2019-04-01T03:53:57.744Z,2.72
2019-04-01T03:56:27.118Z,2.67
2019-04-01T03:58:56.249Z,2.17
2019-04-01T04:01:29.864Z,2.47
2019-04-01T04:03:56.290Z,2.50
2019-04-01T04:06:25.526Z,2.65
2019-04-01T04:08:54.689Z,2.30
2019-04-01T04:11:24.052Z,4.22
2019-04-01T04:13:55.356Z,2.47
2019-04-01T04:16:24.830Z,2.55
2019-04-01T04:18:54.300Z,2.47
2019-04-01T04:21:24.465Z,2.50
2019-04-01T04:23:54.192Z,3.15
2019-04-01T04:26:23.731Z,3.90
2019-04-01T04:28:52.944Z,3.15
2019-04-01T04:31:22.181Z,2.70
2019-04-01T04:33:51.276Z,3.20
2019-04-01T04:36:20.575Z,3.33
2019-04-01T04:38:52.244Z,3.65
2019-04-01T04:41:21.484Z,3.12
2019-04-01T04:43:50.623Z,3.62
2019-04-01T04:46:21.278Z,4.30
2019-04-01T04:48:51.046Z,3.35
2019-04-01T04:51:20.345Z,2.60
2019-04-01T04:53:50.517Z,4.87
2019-04-01T04:56:23.195Z,3.55
2019-04-01T04:58:53.678Z,4.22
2019-04-01T05:01:24.101Z,2.98
2019-04-01T05:03:53.609Z,3.55
2019-04-01T05:06:22.957Z,5.00
2019-04-01T05:08:52.332Z,4.80
2019-04-01T05:11:26.158Z,5.00
2019-04-01T05:13:58.291Z,4.15
2019-04-01T05:16:27.641Z,4.20
2019-04-01T05:19:00.462Z,4.50
2019-04-01T05:21:30.474Z,4.20
2019-04-01T05:24:00.371Z,4.17
2019-04-01T05:26:31.686Z,4.40
2019-04-01T05:29:08.186Z,5.15
2019-04-01T05:31:40.170Z,3.98
2019-04-01T05:34:13.487Z,3.58
2019-04-01T05:37:02.251Z,5.65
2019-04-01T05:39:33.477Z,4.30
2019-04-01T05:42:03.431Z,4.50
2019-04-01T05:44:37.994Z,4.80
2019-04-01T05:47:08.663Z,4.28
2019-04-01T05:49:38.276Z,5.28
2019-04-01T05:58:14.965Z,4.90
2019-04-01T06:00:47.892Z,4.87
2019-04-01T06:03:23.639Z,4.45
2019-04-01T06:05:55.944Z,5.15
2019-04-01T06:08:25.036Z,4.97
2019-04-01T06:10:53.940Z,4.45
2019-04-01T06:13:23.627Z,4.80
2019-04-01T06:15:52.740Z,5.22
2019-04-01T06:18:21.904Z,4.50
2019-04-01T06:20:51.202Z,3.62
2019-04-01T06:23:20.841Z,4.90
2019-04-01T06:25:51.778Z,4.10
2019-04-01T06:28:22.092Z,5.30
2019-04-01T06:30:51.391Z,3.60
2019-04-01T06:33:20.669Z,4.10
2019-04-01T06:35:49.603Z,4.97
2019-04-01T06:38:18.757Z,4.62
2019-04-01T06:40:47.770Z,4.33
2019-04-01T06:43:16.646Z,5.97
2019-04-01T06:45:45.709Z,3.35
2019-04-01T06:48:14.875Z,4.05
2019-04-01T06:50:43.967Z,4.75
2019-04-01T06:53:13.033Z,3.77
2019-04-01T06:55:42.097Z,2.90
2019-04-01T06:58:12.079Z,2.77
2019-04-01T07:00:41.421Z,3.22
2019-04-01T07:03:10.556Z,3.47
2019-04-01T07:05:39.552Z,2.40
2019-04-01T07:08:08.806Z,2.55
2019-04-01T07:10:37.838Z,2.12
2019-04-01T07:13:06.863Z,2.30
2019-04-01T07:15:36.525Z,2.27
2019-04-01T07:18:05.553Z,1.75
2019-04-01T07:20:34.940Z,2.20
2019-04-01T07:23:03.792Z,2.62
2019-04-01T07:25:34.273Z,2.42
2019-04-01T07:28:03.932Z,2.98
2019-04-01T07:30:36.800Z,1.67
2019-04-01T07:33:05.859Z,2.55
2019-04-01T07:35:34.922Z,2.47
2019-04-01T07:38:04.006Z,2.50
2019-04-01T07:40:33.044Z,1.77
2019-04-01T07:43:14.832Z,2.00
2019-04-01T07:45:44.279Z,1.65
2019-04-01T07:48:16.094Z,1.55
2019-04-01T07:50:45.184Z,2.25
2019-04-01T07:53:14.340Z,1.95
2019-04-01T07:55:47.911Z,1.30
2019-04-01T07:58:17.108Z,2.10
2019-04-01T08:00:52.067Z,2.40
2019-04-01T08:03:21.027Z,1.80
2019-04-01T08:06:12.599Z,1.12
2019-04-01T08:08:46.472Z,1.15
2019-04-01T08:11:20.357Z,1.77
2019-04-01T08:13:52.771Z,1.12
2019-04-01T08:16:22.081Z,1.57
2019-04-01T08:18:51.289Z,1.37
2019-04-01T08:21:21.956Z,1.22
2019-04-01T08:23:51.215Z,1.27
2019-04-01T08:26:20.480Z,1.70
2019-04-01T08:28:49.648Z,1.50
2019-04-01T08:31:19.434Z,1.20
2019-04-01T08:33:50.364Z,1.80
2019-04-01T08:36:20.102Z,1.15
2019-04-01T08:38:49.917Z,1.47
2019-04-01T08:41:19.065Z,1.70
2019-04-01T08:43:48.245Z,1.20
2019-04-01T08:46:17.930Z,1.72
2019-04-01T08:48:47.137Z,1.70
2019-04-01T08:51:17.967Z,1.30
2019-04-01T08:53:47.091Z,1.55
2019-04-01T08:56:16.658Z,1.12
2019-04-01T08:58:46.659Z,1.50
2019-04-01T09:01:17.621Z,1.72
2019-04-01T09:03:47.343Z,1.50
2019-04-01T09:06:17.529Z,1.05
2019-04-01T09:08:48.727Z,1.20
2019-04-01T09:11:21.273Z,1.50
2019-04-01T09:13:56.017Z,1.82
2019-04-01T09:16:45.189Z,1.32
2019-04-01T09:19:17.329Z,1.60
2019-04-01T09:21:48.947Z,1.42
2019-04-01T09:24:22.586Z,1.47
2019-04-01T09:26:51.995Z,1.80
2019-04-01T09:29:21.261Z,1.42
2019-04-01T09:31:54.479Z,1.10
2019-04-01T09:34:24.057Z,1.15
2019-04-01T09:36:54.007Z,1.20
2019-04-01T09:39:23.591Z,1.60
2019-04-01T09:41:54.449Z,1.35
2019-04-01T09:44:36.082Z,1.32
2019-04-01T09:46:55.307Z,1.10
2019-04-01T09:49:25.007Z,1.30
2019-04-01T09:51:54.784Z,1.10
2019-04-01T09:57:30.324Z,1.65
2019-04-01T10:00:00.535Z,1.20
2019-04-01T10:02:32.399Z,1.25
2019-04-01T10:05:02.988Z,2.20
2019-04-01T10:07:35.815Z,1.55
2019-04-01T10:10:07.410Z,1.30
2019-04-01T10:13:06.232Z,1.15
2019-04-01T10:15:35.339Z,2.15
2019-04-01T10:18:07.492Z,1.45
2019-04-01T10:20:36.843Z,1.10
2019-04-01T10:23:17.150Z,1.82
2019-04-01T10:25:51.156Z,1.30
2019-04-01T10:28:19.044Z,1.60
2019-04-01T10:30:49.207Z,1.85
2019-04-01T10:33:19.086Z,1.60
2019-04-01T10:35:54.344Z,1.70
2019-04-01T10:38:26.066Z,1.50
2019-04-01T10:40:55.573Z,1.32
2019-04-01T10:43:25.624Z,1.52
2019-04-01T10:45:59.482Z,1.20
2019-04-01T10:48:29.036Z,2.25
2019-04-01T10:50:58.338Z,1.32
2019-04-01T10:53:27.737Z,1.60
2019-04-01T10:55:57.234Z,1.57
2019-04-01T10:58:28.047Z,1.37
2019-04-01T11:01:00.888Z,1.05
2019-04-01T11:03:30.462Z,1.35
2019-04-01T11:06:00.026Z,1.65
2019-04-01T11:08:29.865Z,2.33
2019-04-01T11:11:44.631Z,1.62
2019-04-01T11:14:13.635Z,1.57
2019-04-01T11:16:43.672Z,1.17
2019-04-01T11:19:14.556Z,1.17
2019-04-01T11:21:53.091Z,1.45
2019-04-01T11:24:24.657Z,1.55
2019-04-01T11:26:56.787Z,1.50
2019-04-01T11:29:28.290Z,1.65
2019-04-01T11:32:00.754Z,1.55
2019-04-01T11:34:29.683Z,1.30
2019-04-01T11:37:07.056Z,1.40
2019-04-01T11:39:43.491Z,1.57
2019-04-01T11:42:13.702Z,1.85
2019-04-01T11:44:46.079Z,1.52
2019-04-01T11:47:36.932Z,1.65
2019-04-01T11:50:10.122Z,1.57
2019-04-01T11:52:40.997Z,1.55
2019-04-01T11:55:27.301Z,1.95
2019-04-01T11:58:06.459Z,1.32
2019-04-01T12:00:45.524Z,2.02
2019-04-01T12:03:15.116Z,1.05
2019-04-01T12:05:46.224Z,1.52
2019-04-01T12:08:19.349Z,1.55
2019-04-01T12:10:53.371Z,1.20
2019-04-01T12:13:32.706Z,1.85
2019-04-01T12:16:23.901Z,1.75
2019-04-01T12:18:53.611Z,2.33
2019-04-01T12:21:23.523Z,1.67
2019-04-01T12:24:14.271Z,1.40
2019-04-01T12:26:52.511Z,1.95
2019-04-01T12:29:20.013Z,1.57
2019-04-01T12:31:52.685Z,1.50
2019-04-01T12:34:35.502Z,1.50
2019-04-01T12:37:04.269Z,1.50
2019-04-01T12:39:33.914Z,1.95
2019-04-01T12:42:03.536Z,1.25
2019-04-01T12:44:33.075Z,1.22
2019-04-01T12:47:47.056Z,1.45
2019-04-01T12:50:16.565Z,1.57
2019-04-01T12:52:47.076Z,1.20
2019-04-01T12:55:44.854Z,1.30
2019-04-01T12:58:11.541Z,1.10
2019-04-01T13:03:35.293Z,1.25
2019-04-01T13:06:04.985Z,1.65
2019-04-01T13:08:34.458Z,1.25
2019-04-01T13:11:04.008Z,1.20
2019-04-01T13:13:33.697Z,1.00
2019-04-01T13:16:03.103Z,1.00
2019-04-01T13:18:32.631Z,1.20
2019-04-01T13:21:02.004Z,1.60
2019-04-01T13:23:31.778Z,1.05
2019-04-01T13:26:02.834Z,1.42
2019-04-01T13:28:32.802Z,1.60
2019-04-01T13:31:02.833Z,1.60
2019-04-01T13:33:32.531Z,1.85
2019-04-01T13:36:02.703Z,0.75
2019-04-01T13:38:32.670Z,1.12
2019-04-01T13:41:02.883Z,1.50
2019-04-01T13:43:32.574Z,1.50
2019-04-01T13:46:02.551Z,1.95
2019-04-01T13:48:32.255Z,1.20
2019-04-01T13:51:02.169Z,1.02
2019-04-01T13:53:32.028Z,1.35
2019-04-01T13:56:02.092Z,2.20
2019-04-01T13:58:31.444Z,1.15
2019-04-01T14:01:26.452Z,1.67
2019-04-01T14:03:59.891Z,1.10
2019-04-01T14:06:29.621Z,1.60
2019-04-01T14:09:00.613Z,1.15
2019-04-01T14:11:30.618Z,1.30
2019-04-01T14:14:03.771Z,2.45
2019-04-01T14:16:36.856Z,1.55
2019-04-01T14:19:12.749Z,1.67
2019-04-01T14:21:42.587Z,1.30
2019-04-01T14:24:13.121Z,1.10
2019-04-01T14:26:47.628Z,1.10
2019-04-01T14:29:17.389Z,1.72
2019-04-01T14:31:47.360Z,1.27
2019-04-01T14:34:23.471Z,1.22
2019-04-01T14:36:50.402Z,1.10
2019-04-01T14:39:33.119Z,0.95
2019-04-01T14:42:02.519Z,1.12
2019-04-01T14:44:32.434Z,1.30
2019-04-01T14:47:03.662Z,1.30
2019-04-01T14:49:33.423Z,0.90
2019-04-01T14:52:02.799Z,0.90
2019-04-01T14:54:33.975Z,1.12
2019-04-01T14:57:03.572Z,1.40
2019-04-01T14:59:32.901Z,0.80
2019-04-01T15:02:03.821Z,1.20
2019-04-01T15:04:33.596Z,0.88
2019-04-01T15:07:05.604Z,1.27
2019-04-01T15:09:36.206Z,1.30
2019-04-01T15:12:05.955Z,1.20
2019-04-01T15:14:57.703Z,1.12
2019-04-01T15:17:36.839Z,1.25
2019-04-01T15:20:15.021Z,0.75
2019-04-01T15:22:43.491Z,0.82
2019-04-01T15:25:24.482Z,0.95
2019-04-01T15:27:51.643Z,0.80
2019-04-01T15:30:36.721Z,1.20
2019-04-01T15:33:10.470Z,1.10
2019-04-01T15:35:57.544Z,1.95
2019-04-01T15:41:20.933Z,1.00
2019-04-01T15:43:50.703Z,1.37
2019-04-01T15:46:20.359Z,1.20
2019-04-01T15:49:11.382Z,1.00
2019-04-01T15:52:13.678Z,1.07
2019-04-01T15:54:46.391Z,0.78
2019-04-01T15:57:20.055Z,1.42
2019-04-01T15:59:49.996Z,1.05
2019-04-01T16:02:19.926Z,1.40
2019-04-01T16:04:50.133Z,1.15
2019-04-01T16:07:30.387Z,1.05
2019-04-01T16:10:09.243Z,2.25
2019-04-01T16:12:39.041Z,1.17
2019-04-01T16:15:09.273Z,1.30
2019-04-01T16:17:38.967Z,1.05
2019-04-01T16:20:08.811Z,1.35
2019-04-01T16:22:38.274Z,1.20
2019-04-01T16:25:11.183Z,1.05
2019-04-01T16:30:30.850Z,1.15
2019-04-01T16:33:00.007Z,1.20
2019-04-01T16:35:29.084Z,1.12
2019-04-01T16:37:59.489Z,1.10
2019-04-01T16:40:28.738Z,1.90
2019-04-01T16:42:57.873Z,0.90
2019-04-01T16:45:26.991Z,1.10
2019-04-01T16:47:56.114Z,0.98
2019-04-01T16:50:28.456Z,1.37
2019-04-01T16:52:56.222Z,1.22
2019-04-01T16:55:25.335Z,0.90
2019-04-01T16:57:56.566Z,1.10
2019-04-01T17:00:26.224Z,0.95
2019-04-01T17:02:58.656Z,1.10
2019-04-01T17:05:39.928Z,1.15
2019-04-01T17:08:10.654Z,1.10
2019-04-01T17:10:43.355Z,2.55
2019-04-01T17:13:13.583Z,0.90
2019-04-01T17:15:43.384Z,1.12
2019-04-01T17:18:29.580Z,1.32
2019-04-01T17:20:59.297Z,1.00
2019-04-01T17:23:57.061Z,0.80
2019-04-01T17:26:27.559Z,0.80
2019-04-01T17:28:57.763Z,0.80
2019-04-01T17:31:30.779Z,0.90
2019-04-01T17:34:00.791Z,1.00
2019-04-01T17:36:35.704Z,1.10
2019-04-01T17:39:12.299Z,0.65
2019-04-01T17:41:46.235Z,1.60
2019-04-01T17:44:14.527Z,0.90
2019-04-01T17:46:43.706Z,1.05
2019-04-01T17:49:13.213Z,1.35
2019-04-01T17:51:42.385Z,0.85
2019-04-01T17:54:11.763Z,1.07
2019-04-01T17:56:41.524Z,1.30
2019-04-01T17:59:12.968Z,1.10
2019-04-01T18:01:43.479Z,1.40
2019-04-01T18:04:14.875Z,1.30
2019-04-01T18:06:49.874Z,1.85
2019-04-01T18:09:18.983Z,0.85
2019-04-01T18:11:49.528Z,0.90
2019-04-01T18:14:19.573Z,1.07
2019-04-01T18:16:48.855Z,1.42
2019-04-01T18:19:18.895Z,1.30
2019-04-01T18:22:10.193Z,1.10
2019-04-01T18:25:05.711Z,0.90
2019-04-01T18:30:35.274Z,1.42
2019-04-01T18:33:04.447Z,1.00
2019-04-01T18:35:55.287Z,1.42
2019-04-01T18:38:18.301Z,1.10
2019-04-01T18:40:50.758Z,1.15
2019-04-01T18:43:21.071Z,1.52
2019-04-01T18:45:52.485Z,1.02
2019-04-01T18:48:22.051Z,0.90
2019-04-01T18:51:15.948Z,1.10
2019-04-01T18:53:47.385Z,1.10
2019-04-01T18:56:29.150Z,1.77
2019-04-01T18:59:03.239Z,1.10
2019-04-01T19:01:51.432Z,0.80
2019-04-01T19:04:43.659Z,0.90
2019-04-01T19:07:22.010Z,0.93
2019-04-01T19:10:05.295Z,1.70
2019-04-01T19:12:34.076Z,0.85
2019-04-01T19:15:03.344Z,1.10
2019-04-01T19:17:33.292Z,1.15
2019-04-01T19:20:11.175Z,1.05
2019-04-01T19:25:32.665Z,2.60
2019-04-01T19:28:01.956Z,1.45
2019-04-01T19:30:31.105Z,2.05
2019-04-01T19:33:00.500Z,0.80
2019-04-01T19:35:29.567Z,1.25
2019-04-01T19:37:58.660Z,1.00
2019-04-01T19:40:30.522Z,1.47
2019-04-01T19:43:03.380Z,1.45
2019-04-01T19:45:30.856Z,1.05
2019-04-01T19:48:00.069Z,1.25
2019-04-01T19:50:30.188Z,1.50
2019-04-01T19:53:02.526Z,1.60
2019-04-01T19:55:34.393Z,1.30
2019-04-01T19:58:05.201Z,0.95
2019-04-01T20:00:35.152Z,0.80
2019-04-01T20:03:05.757Z,1.30
2019-04-01T20:05:36.103Z,1.55
2019-04-01T20:08:05.205Z,1.32
2019-04-01T20:10:34.682Z,1.10
2019-04-01T20:13:29.973Z,1.22
2019-04-01T20:16:12.692Z,1.40
2019-04-01T20:18:43.064Z,1.00
2019-04-01T20:21:12.074Z,1.00
2019-04-01T20:23:41.148Z,0.98
2019-04-01T20:26:10.329Z,0.90
2019-04-01T20:28:39.292Z,0.75
2019-04-01T20:31:08.285Z,1.02
2019-04-01T20:33:39.325Z,1.22
2019-04-01T20:36:08.437Z,0.85
2019-04-01T20:38:37.462Z,1.10
2019-04-01T20:41:06.547Z,2.92
2019-04-01T20:43:39.108Z,1.22
2019-04-01T20:46:08.175Z,1.10
2019-04-01T20:48:37.319Z,1.05
2019-04-01T20:51:06.337Z,0.90
2019-04-01T20:53:35.676Z,1.60
2019-04-01T20:56:04.761Z,1.35
2019-04-01T20:58:33.747Z,1.20
2019-04-01T21:01:02.757Z,0.98
2019-04-01T21:03:33.692Z,1.00
2019-04-01T21:06:02.697Z,1.22
2019-04-01T21:08:32.109Z,0.95
2019-04-01T21:11:01.068Z,1.25
2019-04-01T21:13:29.992Z,1.20
2019-04-01T21:15:59.196Z,1.45
2019-04-01T21:18:28.463Z,1.50
2019-04-01T21:20:57.410Z,1.52
2019-04-01T21:23:26.408Z,1.12
2019-04-01T21:25:55.610Z,1.60
2019-04-01T21:28:25.057Z,1.37
2019-04-01T21:30:54.405Z,1.45
2019-04-01T21:33:23.309Z,1.20
2019-04-01T21:35:52.297Z,0.98
2019-04-01T21:38:21.287Z,1.32
2019-04-01T21:40:50.221Z,1.12
2019-04-01T21:43:19.216Z,1.27
2019-04-01T21:45:48.999Z,1.30
2019-04-01T21:48:17.860Z,2.25
2019-04-01T21:50:46.813Z,1.20
2019-04-01T21:53:15.704Z,1.70
2019-04-01T21:55:44.704Z,1.50
2019-04-01T21:58:13.655Z,1.57
2019-04-01T22:00:53.269Z,1.60
2019-04-01T22:03:22.119Z,1.45
2019-04-01T22:05:51.084Z,1.37
2019-04-01T22:08:20.208Z,1.32
2019-04-01T22:10:49.165Z,1.30
2019-04-01T22:13:18.017Z,1.32
2019-04-01T22:15:46.968Z,1.35
2019-04-01T22:18:15.873Z,1.85
2019-04-01T22:20:45.016Z,1.35
2019-04-01T22:23:13.868Z,1.52
2019-04-01T22:25:42.681Z,1.35
2019-04-01T22:28:11.544Z,1.35
2019-04-01T22:30:40.352Z,1.67
2019-04-01T22:33:11.066Z,1.50
2019-04-01T22:35:41.575Z,2.87
2019-04-01T22:38:10.705Z,1.55
2019-04-01T22:40:39.580Z,1.55
2019-04-01T22:43:08.437Z,1.50
2019-04-01T22:45:37.475Z,1.67
2019-04-01T22:48:06.429Z,1.60
2019-04-01T22:50:35.338Z,2.85
2019-04-01T22:53:04.758Z,1.62
2019-04-01T22:55:33.850Z,1.80
2019-04-01T22:58:02.772Z,1.40
2019-04-01T23:00:31.699Z,1.90
2019-04-01T23:03:00.590Z,2.02
2019-04-01T23:05:29.447Z,1.80
2019-04-01T23:07:58.219Z,2.00
2019-04-01T23:10:27.186Z,2.15
2019-04-01T23:12:56.497Z,1.32
2019-04-01T23:15:25.472Z,1.70
2019-04-01T23:17:54.470Z,2.10
2019-04-01T23:20:23.353Z,1.67
2019-04-01T23:22:52.185Z,1.77
2019-04-01T23:25:21.111Z,1.50
2019-04-01T23:27:50.034Z,1.60
2019-04-01T23:30:19.335Z,1.98
2019-04-01T23:32:49.143Z,1.85
2019-04-01T23:35:17.955Z,2.27
2019-04-01T23:37:46.825Z,1.52
2019-04-01T23:40:15.859Z,1.60
2019-04-01T23:42:44.728Z,1.90
2019-04-01T23:45:13.723Z,1.70
2019-04-01T23:47:42.587Z,1.70
2019-04-01T23:50:11.633Z,2.00
2019-04-01T23:52:40.546Z,1.37
2019-04-01T23:55:09.807Z,2.27
2019-04-01T23:57:38.601Z,1.82
